VIAR/ATQ METAR and TAF weather

Enter ICAO airport designator
Station Type Date Time Source
VIAR METAR 2019/02/17 08:00 UTC NOAA

VIAR 170800Z 00000KT 2200 BR SCT040 BKN100 16/10 Q1014 NOSIG


Station Type Date Time Source
VIAR Decoded METAR 2019/02/17 08:00 UTC NOAA

Amritsar, India (VIAR) 31-38N 074-52E 234M
Feb 17, 2019 - 03:00 AM EST / 2019.02.17 0800 UTC
Wind: Calm:0
Visibility: 1 mile(s):0
Sky conditions: mostly cloudy
Weather: mist
Temperature: 60 F (16 C)
Dew Point: 50 F (10 C)
Relative Humidity: 67%
Pressure (altimeter): 29.94 in. Hg (1014 hPa)
ob: VIAR 170800Z 00000KT 2200 BR SCT040 BKN100 16/10 Q1014 NOSIG
cycle: 8

Station Type Date Time Source
VIAR TAF 2019/02/17 06:21 UTC NOAA

TAF TAF VIAR 170500Z 1706/1812 29006KT 2500 HZ SCT040 BKN100
BECMG 1709/1712 FEW035CB
BECMG 1713/1715 33003KT 2000 BR
BECMG 1718/1720 00000KT 1500 BR
BECMG 1722/1803 FEW035CB
BECMG 1804/1806 09006KT 2500 HZ SCT030 BKN100
BECMG 1808/1812 1500 TSRA SCT030 FEW035CB OVC080


Example: see airport list